sensor_id;sensor_type;location;lat;lon;timestamp;P1;durP1;ratioP1;P2;durP2;ratioP2
5762;SDS011;2906;53.282;9.508;2023-07-28T00:00:10;5.40;;;2.20;;
5762;SDS011;2906;53.282;9.508;2023-07-28T00:01:13;2.30;;;2.10;;
5762;SDS011;2906;53.282;9.508;2023-07-28T00:02:16;4.93;;;2.50;;
5762;SDS011;2906;53.282;9.508;2023-07-28T00:03:19;2.05;;;1.90;;
5762;SDS011;2906;53.282;9.508;2023-07-28T00:04:22;2.53;;;2.33;;
5762;SDS011;2906;53.282;9.508;2023-07-28T00:05:23;3.05;;;2.75;;
5762;SDS011;2906;53.282;9.508;2023-07-28T00:06:27;14.60;;;2.72;;
5762;SDS011;2906;53.282;9.508;2023-07-28T00:07:28;3.22;;;3.00;;
5762;SDS011;2906;53.282;9.508;2023-07-28T00:08:34;3.60;;;3.08;;
5762;SDS011;2906;53.282;9.508;2023-07-28T00:09:36;3.38;;;2.95;;
5762;SDS011;2906;53.282;9.508;2023-07-28T00:10:40;4.72;;;3.08;;
5762;SDS011;2906;53.282;9.508;2023-07-28T00:11:42;3.10;;;2.80;;
5762;SDS011;2906;53.282;9.508;2023-07-28T00:12:44;4.10;;;3.70;;
5762;SDS011;2906;53.282;9.508;2023-07-28T00:13:47;4.68;;;3.08;;
5762;SDS011;2906;53.282;9.508;2023-07-28T00:14:49;3.85;;;3.45;;
5762;SDS011;2906;53.282;9.508;2023-07-28T00:15:52;3.55;;;3.25;;
5762;SDS011;2906;53.282;9.508;2023-07-28T00:16:55;5.13;;;3.75;;
5762;SDS011;2906;53.282;9.508;2023-07-28T00:17:58;5.05;;;3.63;;
5762;SDS011;2906;53.282;9.508;2023-07-28T00:19:01;3.50;;;3.20;;
5762;SDS011;2906;53.282;9.508;2023-07-28T00:20:03;4.28;;;3.88;;
5762;SDS011;2906;53.282;9.508;2023-07-28T00:21:06;6.97;;;3.50;;
5762;SDS011;2906;53.282;9.508;2023-07-28T00:22:07;4.25;;;3.85;;
5762;SDS011;2906;53.282;9.508;2023-07-28T00:23:09;3.85;;;3.55;;
5762;SDS011;2906;53.282;9.508;2023-07-28T00:24:10;4.13;;;3.72;;
5762;SDS011;2906;53.282;9.508;2023-07-28T00:25:12;3.90;;;3.50;;
5762;SDS011;2906;53.282;9.508;2023-07-28T00:26:14;3.58;;;3.28;;
5762;SDS011;2906;53.282;9.508;2023-07-28T00:27:16;9.65;;;3.67;;
5762;SDS011;2906;53.282;9.508;2023-07-28T00:28:18;3.10;;;2.85;;
5762;SDS011;2906;53.282;9.508;2023-07-28T00:29:20;3.55;;;2.53;;
5762;SDS011;2906;53.282;9.508;2023-07-28T00:30:22;2.97;;;2.67;;
5762;SDS011;2906;53.282;9.508;2023-07-28T00:31:23;2.35;;;1.73;;
5762;SDS011;2906;53.282;9.508;2023-07-28T00:32:27;2.00;;;1.80;;
5762;SDS011;2906;53.282;9.508;2023-07-28T00:33:28;1.85;;;1.75;;
5762;SDS011;2906;53.282;9.508;2023-07-28T00:34:30;2.15;;;1.95;;
5762;SDS011;2906;53.282;9.508;2023-07-28T00:35:32;1.90;;;1.80;;
5762;SDS011;2906;53.282;9.508;2023-07-28T00:36:34;1.83;;;1.65;;
5762;SDS011;2906;53.282;9.508;2023-07-28T00:37:36;1.50;;;1.40;;
5762;SDS011;2906;53.282;9.508;2023-07-28T00:38:38;5.05;;;1.80;;
5762;SDS011;2906;53.282;9.508;2023-07-28T00:39:39;2.80;;;1.55;;
5762;SDS011;2906;53.282;9.508;2023-07-28T00:40:42;1.63;;;1.52;;
5762;SDS011;2906;53.282;9.508;2023-07-28T00:41:43;1.83;;;1.63;;
5762;SDS011;2906;53.282;9.508;2023-07-28T00:42:45;1.52;;;1.42;;
5762;SDS011;2906;53.282;9.508;2023-07-28T00:43:47;1.65;;;1.55;;
5762;SDS011;2906;53.282;9.508;2023-07-28T00:44:49;3.47;;;1.30;;
5762;SDS011;2906;53.282;9.508;2023-07-28T00:45:54;1.48;;;1.38;;
5762;SDS011;2906;53.282;9.508;2023-07-28T00:46:56;1.83;;;1.48;;
5762;SDS011;2906;53.282;9.508;2023-07-28T00:47:59;1.83;;;1.60;;
5762;SDS011;2906;53.282;9.508;2023-07-28T00:49:02;1.77;;;1.65;;
5762;SDS011;2906;53.282;9.508;2023-07-28T00:50:05;2.47;;;1.38;;
5762;SDS011;2906;53.282;9.508;2023-07-28T00:51:09;2.22;;;1.65;;
5762;SDS011;2906;53.282;9.508;2023-07-28T00:52:10;2.15;;;1.75;;
5762;SDS011;2906;53.282;9.508;2023-07-28T00:53:12;2.30;;;1.70;;
5762;SDS011;2906;53.282;9.508;2023-07-28T00:54:14;2.42;;;2.22;;
5762;SDS011;2906;53.282;9.508;2023-07-28T00:55:16;4.57;;;2.20;;
5762;SDS011;2906;53.282;9.508;2023-07-28T00:56:18;3.67;;;2.30;;
5762;SDS011;2906;53.282;9.508;2023-07-28T00:57:21;4.03;;;3.15;;
5762;SDS011;2906;53.282;9.508;2023-07-28T00:58:22;2.67;;;2.40;;
5762;SDS011;2906;53.282;9.508;2023-07-28T00:59:25;4.70;;;2.28;;
5762;SDS011;2906;53.282;9.508;2023-07-28T01:00:27;3.72;;;3.00;;
5762;SDS011;2906;53.282;9.508;2023-07-28T01:01:29;3.20;;;2.60;;
5762;SDS011;2906;53.282;9.508;2023-07-28T01:02:30;2.72;;;2.35;;
5762;SDS011;2906;53.282;9.508;2023-07-28T01:03:34;2.88;;;2.67;;
5762;SDS011;2906;53.282;9.508;2023-07-28T01:04:35;2.90;;;2.60;;
5762;SDS011;2906;53.282;9.508;2023-07-28T01:05:39;3.70;;;2.55;;
5762;SDS011;2906;53.282;9.508;2023-07-28T01:06:46;3.10;;;2.80;;
5762;SDS011;2906;53.282;9.508;2023-07-28T01:07:52;2.25;;;2.05;;
5762;SDS011;2906;53.282;9.508;2023-07-28T01:08:56;5.95;;;2.20;;
5762;SDS011;2906;53.282;9.508;2023-07-28T01:10:00;3.92;;;2.95;;
5762;SDS011;2906;53.282;9.508;2023-07-28T01:11:03;3.85;;;2.80;;
5762;SDS011;2906;53.282;9.508;2023-07-28T01:12:07;2.92;;;2.60;;
5762;SDS011;2906;53.282;9.508;2023-07-28T01:13:09;2.47;;;2.28;;
5762;SDS011;2906;53.282;9.508;2023-07-28T01:14:11;2.40;;;2.20;;
5762;SDS011;2906;53.282;9.508;2023-07-28T01:15:13;2.50;;;2.30;;
5762;SDS011;2906;53.282;9.508;2023-07-28T01:16:15;2.45;;;2.25;;
5762;SDS011;2906;53.282;9.508;2023-07-28T01:17:17;3.03;;;2.30;;
5762;SDS011;2906;53.282;9.508;2023-07-28T01:18:19;2.28;;;2.08;;
5762;SDS011;2906;53.282;9.508;2023-07-28T01:19:22;2.50;;;2.30;;
5762;SDS011;2906;53.282;9.508;2023-07-28T01:20:24;2.05;;;1.85;;
5762;SDS011;2906;53.282;9.508;2023-07-28T01:21:29;2.20;;;2.00;;
5762;SDS011;2906;53.282;9.508;2023-07-28T01:22:39;2.45;;;2.25;;
5762;SDS011;2906;53.282;9.508;2023-07-28T01:23:50;2.22;;;1.80;;
5762;SDS011;2906;53.282;9.508;2023-07-28T01:24:55;2.67;;;2.47;;
5762;SDS011;2906;53.282;9.508;2023-07-28T01:26:08;2.20;;;2.00;;
5762;SDS011;2906;53.282;9.508;2023-07-28T01:27:11;3.40;;;1.90;;
5762;SDS011;2906;53.282;9.508;2023-07-28T01:28:13;6.25;;;2.05;;
5762;SDS011;2906;53.282;9.508;2023-07-28T01:29:14;2.65;;;1.75;;
5762;SDS011;2906;53.282;9.508;2023-07-28T01:30:19;2.15;;;2.00;;
5762;SDS011;2906;53.282;9.508;2023-07-28T01:31:21;1.60;;;1.50;;
5762;SDS011;2906;53.282;9.508;2023-07-28T01:32:23;1.70;;;1.60;;
5762;SDS011;2906;53.282;9.508;2023-07-28T01:33:24;3.92;;;1.60;;
5762;SDS011;2906;53.282;9.508;2023-07-28T01:34:27;1.85;;;1.75;;
5762;SDS011;2906;53.282;9.508;2023-07-28T01:35:28;2.72;;;1.48;;
5762;SDS011;2906;53.282;9.508;2023-07-28T01:36:30;3.75;;;1.70;;
5762;SDS011;2906;53.282;9.508;2023-07-28T01:37:32;2.95;;;1.73;;
5762;SDS011;2906;53.282;9.508;2023-07-28T01:38:34;3.20;;;1.40;;
5762;SDS011;2906;53.282;9.508;2023-07-28T01:39:35;1.75;;;1.25;;
5762;SDS011;2906;53.282;9.508;2023-07-28T01:40:38;3.08;;;1.05;;
5762;SDS011;2906;53.282;9.508;2023-07-28T01:41:39;3.67;;;1.50;;
5762;SDS011;2906;53.282;9.508;2023-07-28T01:42:44;1.42;;;1.33;;
5762;SDS011;2906;53.282;9.508;2023-07-28T01:43:46;1.40;;;1.30;;
5762;SDS011;2906;53.282;9.508;2023-07-28T01:44:48;1.42;;;1.33;;
5762;SDS011;2906;53.282;9.508;2023-07-28T01:45:50;3.33;;;1.63;;
5762;SDS011;2906;53.282;9.508;2023-07-28T01:46:52;1.30;;;1.20;;
5762;SDS011;2906;53.282;9.508;2023-07-28T01:47:53;1.95;;;1.38;;
5762;SDS011;2906;53.282;9.508;2023-07-28T01:48:55;2.05;;;1.40;;
5762;SDS011;2906;53.282;9.508;2023-07-28T01:49:57;1.60;;;1.50;;
5762;SDS011;2906;53.282;9.508;2023-07-28T01:50:59;1.67;;;1.58;;
5762;SDS011;2906;53.282;9.508;2023-07-28T01:52:01;1.40;;;1.30;;
5762;SDS011;2906;53.282;9.508;2023-07-28T01:53:03;1.52;;;1.42;;
5762;SDS011;2906;53.282;9.508;2023-07-28T01:54:04;1.27;;;1.17;;
5762;SDS011;2906;53.282;9.508;2023-07-28T01:55:07;1.48;;;1.20;;
5762;SDS011;2906;53.282;9.508;2023-07-28T01:56:08;2.65;;;1.33;;
5762;SDS011;2906;53.282;9.508;2023-07-28T01:57:11;2.30;;;1.25;;
5762;SDS011;2906;53.282;9.508;2023-07-28T01:58:14;1.17;;;1.00;;
5762;SDS011;2906;53.282;9.508;2023-07-28T01:59:16;1.80;;;1.10;;
5762;SDS011;2906;53.282;9.508;2023-07-28T02:00:19;1.88;;;1.40;;
5762;SDS011;2906;53.282;9.508;2023-07-28T02:01:20;1.25;;;1.15;;
5762;SDS011;2906;53.282;9.508;2023-07-28T02:02:22;1.42;;;1.33;;
5762;SDS011;2906;53.282;9.508;2023-07-28T02:03:24;1.30;;;1.13;;
5762;SDS011;2906;53.282;9.508;2023-07-28T02:04:26;1.40;;;1.20;;
5762;SDS011;2906;53.282;9.508;2023-07-28T02:05:27;1.55;;;1.40;;
5762;SDS011;2906;53.282;9.508;2023-07-28T02:06:29;3.15;;;1.23;;
5762;SDS011;2906;53.282;9.508;2023-07-28T02:07:31;2.22;;;1.80;;
5762;SDS011;2906;53.282;9.508;2023-07-28T02:08:33;1.70;;;1.60;;
5762;SDS011;2906;53.282;9.508;2023-07-28T02:09:34;1.70;;;1.60;;
5762;SDS011;2906;53.282;9.508;2023-07-28T02:10:36;1.75;;;1.65;;
5762;SDS011;2906;53.282;9.508;2023-07-28T02:11:38;1.88;;;1.70;;
5762;SDS011;2906;53.282;9.508;2023-07-28T02:12:40;3.22;;;1.77;;
5762;SDS011;2906;53.282;9.508;2023-07-28T02:13:43;1.75;;;1.65;;
5762;SDS011;2906;53.282;9.508;2023-07-28T02:14:45;2.22;;;1.77;;
5762;SDS011;2906;53.282;9.508;2023-07-28T02:15:47;2.28;;;2.08;;
5762;SDS011;2906;53.282;9.508;2023-07-28T02:16:49;2.17;;;1.98;;
5762;SDS011;2906;53.282;9.508;2023-07-28T02:17:50;2.33;;;2.13;;
5762;SDS011;2906;53.282;9.508;2023-07-28T02:18:53;3.33;;;2.65;;
5762;SDS011;2906;53.282;9.508;2023-07-28T02:19:54;3.03;;;2.60;;
5762;SDS011;2906;53.282;9.508;2023-07-28T02:20:56;3.95;;;3.05;;
5762;SDS011;2906;53.282;9.508;2023-07-28T02:21:58;5.15;;;3.53;;
5762;SDS011;2906;53.282;9.508;2023-07-28T02:23:00;8.00;;;3.75;;
5762;SDS011;2906;53.282;9.508;2023-07-28T02:24:01;3.75;;;3.05;;
5762;SDS011;2906;53.282;9.508;2023-07-28T02:25:04;7.40;;;4.20;;
5762;SDS011;2906;53.282;9.508;2023-07-28T02:26:05;6.40;;;3.50;;
5762;SDS011;2906;53.282;9.508;2023-07-28T02:27:08;6.00;;;4.47;;
5762;SDS011;2906;53.282;9.508;2023-07-28T02:28:10;5.75;;;3.90;;
5762;SDS011;2906;53.282;9.508;2023-07-28T02:29:14;5.60;;;4.45;;
5762;SDS011;2906;53.282;9.508;2023-07-28T02:30:15;8.30;;;4.63;;
5762;SDS011;2906;53.282;9.508;2023-07-28T02:31:17;9.82;;;4.68;;
5762;SDS011;2906;53.282;9.508;2023-07-28T02:32:19;6.20;;;4.45;;
5762;SDS011;2906;53.282;9.508;2023-07-28T02:33:20;8.45;;;5.50;;
5762;SDS011;2906;53.282;9.508;2023-07-28T02:34:23;6.68;;;4.68;;
5762;SDS011;2906;53.282;9.508;2023-07-28T02:35:24;8.18;;;4.90;;
5762;SDS011;2906;53.282;9.508;2023-07-28T02:36:27;8.45;;;4.95;;
5762;SDS011;2906;53.282;9.508;2023-07-28T02:37:28;10.95;;;5.35;;
5762;SDS011;2906;53.282;9.508;2023-07-28T02:38:30;9.82;;;4.72;;
5762;SDS011;2906;53.282;9.508;2023-07-28T02:39:32;8.48;;;4.93;;
5762;SDS011;2906;53.282;9.508;2023-07-28T02:40:34;8.88;;;4.90;;
5762;SDS011;2906;53.282;9.508;2023-07-28T02:41:35;8.80;;;4.57;;
5762;SDS011;2906;53.282;9.508;2023-07-28T02:42:38;13.48;;;5.40;;
5762;SDS011;2906;53.282;9.508;2023-07-28T02:43:39;11.25;;;5.55;;
5762;SDS011;2906;53.282;9.508;2023-07-28T02:44:43;11.18;;;6.45;;
5762;SDS011;2906;53.282;9.508;2023-07-28T02:45:47;9.65;;;5.65;;
5762;SDS011;2906;53.282;9.508;2023-07-28T02:46:49;9.10;;;5.57;;
5762;SDS011;2906;53.282;9.508;2023-07-28T02:47:51;8.65;;;5.90;;
5762;SDS011;2906;53.282;9.508;2023-07-28T02:48:53;8.23;;;5.50;;
5762;SDS011;2906;53.282;9.508;2023-07-28T02:49:54;11.00;;;6.00;;
5762;SDS011;2906;53.282;9.508;2023-07-28T02:50:57;9.60;;;5.47;;
5762;SDS011;2906;53.282;9.508;2023-07-28T02:51:58;7.65;;;5.40;;
5762;SDS011;2906;53.282;9.508;2023-07-28T02:53:03;11.40;;;5.68;;
5762;SDS011;2906;53.282;9.508;2023-07-28T02:54:04;13.07;;;5.93;;
5762;SDS011;2906;53.282;9.508;2023-07-28T02:55:07;10.40;;;5.80;;
5762;SDS011;2906;53.282;9.508;2023-07-28T02:56:08;12.20;;;5.90;;
5762;SDS011;2906;53.282;9.508;2023-07-28T02:57:11;12.82;;;6.05;;
5762;SDS011;2906;53.282;9.508;2023-07-28T02:58:12;12.13;;;5.60;;
5762;SDS011;2906;53.282;9.508;2023-07-28T02:59:15;12.40;;;5.85;;
5762;SDS011;2906;53.282;9.508;2023-07-28T03:00:17;13.18;;;6.60;;
5762;SDS011;2906;53.282;9.508;2023-07-28T03:01:20;9.77;;;5.47;;
5762;SDS011;2906;53.282;9.508;2023-07-28T03:02:21;20.98;;;7.13;;
5762;SDS011;2906;53.282;9.508;2023-07-28T03:03:24;9.38;;;5.90;;
5762;SDS011;2906;53.282;9.508;2023-07-28T03:04:25;13.55;;;6.35;;
5762;SDS011;2906;53.282;9.508;2023-07-28T03:05:28;13.05;;;5.93;;
5762;SDS011;2906;53.282;9.508;2023-07-28T03:06:29;9.77;;;6.35;;
5762;SDS011;2906;53.282;9.508;2023-07-28T03:07:31;13.73;;;7.32;;
5762;SDS011;2906;53.282;9.508;2023-07-28T03:08:32;14.35;;;7.10;;
5762;SDS011;2906;53.282;9.508;2023-07-28T03:09:34;11.88;;;6.20;;
5762;SDS011;2906;53.282;9.508;2023-07-28T03:10:37;18.52;;;7.40;;
5762;SDS011;2906;53.282;9.508;2023-07-28T03:11:38;15.80;;;7.03;;
5762;SDS011;2906;53.282;9.508;2023-07-28T03:12:40;12.18;;;6.50;;
5762;SDS011;2906;53.282;9.508;2023-07-28T03:13:41;23.77;;;7.30;;
5762;SDS011;2906;53.282;9.508;2023-07-28T03:14:44;12.80;;;6.75;;
5762;SDS011;2906;53.282;9.508;2023-07-28T03:15:46;13.13;;;6.40;;
5762;SDS011;2906;53.282;9.508;2023-07-28T03:16:48;15.27;;;8.02;;
5762;SDS011;2906;53.282;9.508;2023-07-28T03:17:50;11.07;;;6.55;;
5762;SDS011;2906;53.282;9.508;2023-07-28T03:18:53;13.55;;;6.55;;
5762;SDS011;2906;53.282;9.508;2023-07-28T03:19:54;13.82;;;6.78;;
5762;SDS011;2906;53.282;9.508;2023-07-28T03:20:56;11.55;;;5.80;;
5762;SDS011;2906;53.282;9.508;2023-07-28T03:21:58;12.02;;;7.15;;
5762;SDS011;2906;53.282;9.508;2023-07-28T03:23:00;20.88;;;6.95;;
5762;SDS011;2906;53.282;9.508;2023-07-28T03:24:01;12.65;;;6.60;;
5762;SDS011;2906;53.282;9.508;2023-07-28T03:25:04;17.00;;;6.63;;
5762;SDS011;2906;53.282;9.508;2023-07-28T03:26:05;11.15;;;6.60;;
5762;SDS011;2906;53.282;9.508;2023-07-28T03:27:08;16.10;;;7.75;;
5762;SDS011;2906;53.282;9.508;2023-07-28T03:28:09;13.25;;;7.13;;
5762;SDS011;2906;53.282;9.508;2023-07-28T03:29:10;18.10;;;6.57;;
5762;SDS011;2906;53.282;9.508;2023-07-28T03:30:13;13.55;;;7.07;;
5762;SDS011;2906;53.282;9.508;2023-07-28T03:31:15;14.38;;;7.18;;
5762;SDS011;2906;53.282;9.508;2023-07-28T03:32:18;12.80;;;6.60;;
5762;SDS011;2906;53.282;9.508;2023-07-28T03:33:19;19.80;;;7.43;;
5762;SDS011;2906;53.282;9.508;2023-07-28T03:34:21;15.18;;;6.72;;
5762;SDS011;2906;53.282;9.508;2023-07-28T03:35:23;15.98;;;6.63;;
5762;SDS011;2906;53.282;9.508;2023-07-28T03:36:25;21.52;;;6.63;;
5762;SDS011;2906;53.282;9.508;2023-07-28T03:37:28;13.85;;;7.13;;
5762;SDS011;2906;53.282;9.508;2023-07-28T03:38:29;13.18;;;6.68;;
5762;SDS011;2906;53.282;9.508;2023-07-28T03:39:31;11.27;;;7.13;;
5762;SDS011;2906;53.282;9.508;2023-07-28T03:40:32;13.63;;;6.97;;
5762;SDS011;2906;53.282;9.508;2023-07-28T03:41:35;12.70;;;7.25;;
5762;SDS011;2906;53.282;9.508;2023-07-28T03:42:36;15.27;;;7.97;;
5762;SDS011;2906;53.282;9.508;2023-07-28T03:43:39;13.85;;;6.93;;
5762;SDS011;2906;53.282;9.508;2023-07-28T03:44:40;14.60;;;6.40;;
5762;SDS011;2906;53.282;9.508;2023-07-28T03:45:42;18.63;;;6.90;;
5762;SDS011;2906;53.282;9.508;2023-07-28T03:46:45;20.42;;;7.38;;
5762;SDS011;2906;53.282;9.508;2023-07-28T03:47:47;14.13;;;7.05;;
5762;SDS011;2906;53.282;9.508;2023-07-28T03:48:49;15.63;;;7.97;;
5762;SDS011;2906;53.282;9.508;2023-07-28T03:49:51;13.85;;;7.35;;
5762;SDS011;2906;53.282;9.508;2023-07-28T03:50:53;15.13;;;7.88;;
5762;SDS011;2906;53.282;9.508;2023-07-28T03:51:55;18.70;;;7.68;;
5762;SDS011;2906;53.282;9.508;2023-07-28T03:52:56;13.57;;;8.00;;
5762;SDS011;2906;53.282;9.508;2023-07-28T03:54:02;17.42;;;7.45;;
5762;SDS011;2906;53.282;9.508;2023-07-28T03:55:03;15.13;;;7.15;;
5762;SDS011;2906;53.282;9.508;2023-07-28T03:56:05;13.43;;;6.95;;
5762;SDS011;2906;53.282;9.508;2023-07-28T03:57:08;15.45;;;8.23;;
5762;SDS011;2906;53.282;9.508;2023-07-28T03:58:10;17.45;;;8.10;;
5762;SDS011;2906;53.282;9.508;2023-07-28T03:59:11;20.95;;;8.60;;
5762;SDS011;2906;53.282;9.508;2023-07-28T04:00:14;16.02;;;8.32;;
5762;SDS011;2906;53.282;9.508;2023-07-28T04:01:15;19.92;;;7.63;;
5762;SDS011;2906;53.282;9.508;2023-07-28T04:02:18;24.20;;;7.88;;
5762;SDS011;2906;53.282;9.508;2023-07-28T04:03:20;18.52;;;8.48;;
5762;SDS011;2906;53.282;9.508;2023-07-28T04:04:22;19.95;;;8.10;;
5762;SDS011;2906;53.282;9.508;2023-07-28T04:05:24;19.73;;;8.52;;
5762;SDS011;2906;53.282;9.508;2023-07-28T04:06:38;17.30;;;7.70;;
5762;SDS011;2906;53.282;9.508;2023-07-28T04:07:41;17.23;;;8.05;;
5762;SDS011;2906;53.282;9.508;2023-07-28T04:08:43;13.18;;;7.28;;
5762;SDS011;2906;53.282;9.508;2023-07-28T04:09:45;21.23;;;8.68;;
5762;SDS011;2906;53.282;9.508;2023-07-28T04:10:46;16.85;;;7.68;;
5762;SDS011;2906;53.282;9.508;2023-07-28T04:11:49;18.25;;;8.02;;
5762;SDS011;2906;53.282;9.508;2023-07-28T04:12:50;28.60;;;8.88;;
5762;SDS011;2906;53.282;9.508;2023-07-28T04:13:51;22.67;;;8.15;;
5762;SDS011;2906;53.282;9.508;2023-07-28T04:14:54;20.67;;;8.52;;
5762;SDS011;2906;53.282;9.508;2023-07-28T04:15:56;15.40;;;7.65;;
5762;SDS011;2906;53.282;9.508;2023-07-28T04:16:59;18.60;;;8.40;;
5762;SDS011;2906;53.282;9.508;2023-07-28T04:18:02;23.77;;;8.50;;
5762;SDS011;2906;53.282;9.508;2023-07-28T04:19:03;15.88;;;8.27;;
5762;SDS011;2906;53.282;9.508;2023-07-28T04:20:06;23.45;;;9.15;;
5762;SDS011;2906;53.282;9.508;2023-07-28T04:21:07;20.55;;;9.57;;
5762;SDS011;2906;53.282;9.508;2023-07-28T04:22:10;15.05;;;7.72;;
5762;SDS011;2906;53.282;9.508;2023-07-28T04:23:11;16.73;;;8.00;;
5762;SDS011;2906;53.282;9.508;2023-07-28T04:24:14;20.90;;;8.10;;
5762;SDS011;2906;53.282;9.508;2023-07-28T04:25:15;14.90;;;8.18;;
5762;SDS011;2906;53.282;9.508;2023-07-28T04:26:17;14.15;;;7.30;;
5762;SDS011;2906;53.282;9.508;2023-07-28T04:27:19;20.40;;;7.75;;
5762;SDS011;2906;53.282;9.508;2023-07-28T04:28:21;17.17;;;8.43;;
5762;SDS011;2906;53.282;9.508;2023-07-28T04:29:24;18.13;;;8.30;;
5762;SDS011;2906;53.282;9.508;2023-07-28T04:30:27;17.08;;;7.80;;
5762;SDS011;2906;53.282;9.508;2023-07-28T04:31:28;20.25;;;8.30;;
5762;SDS011;2906;53.282;9.508;2023-07-28T04:32:31;19.80;;;8.15;;
5762;SDS011;2906;53.282;9.508;2023-07-28T04:33:34;23.85;;;7.95;;
5762;SDS011;2906;53.282;9.508;2023-07-28T04:34:36;16.40;;;7.72;;
5762;SDS011;2906;53.282;9.508;2023-07-28T04:35:37;14.77;;;6.82;;
5762;SDS011;2906;53.282;9.508;2023-07-28T04:36:40;15.52;;;7.63;;
5762;SDS011;2906;53.282;9.508;2023-07-28T04:37:41;15.25;;;7.00;;
5762;SDS011;2906;53.282;9.508;2023-07-28T04:38:43;21.25;;;8.90;;
5762;SDS011;2906;53.282;9.508;2023-07-28T04:39:44;16.73;;;8.60;;
5762;SDS011;2906;53.282;9.508;2023-07-28T04:40:47;14.90;;;7.47;;
5762;SDS011;2906;53.282;9.508;2023-07-28T04:41:48;22.08;;;7.90;;
5762;SDS011;2906;53.282;9.508;2023-07-28T04:42:49;15.93;;;8.20;;
5762;SDS011;2906;53.282;9.508;2023-07-28T04:43:53;19.58;;;8.30;;
5762;SDS011;2906;53.282;9.508;2023-07-28T04:44:55;17.60;;;7.82;;
5762;SDS011;2906;53.282;9.508;2023-07-28T04:45:57;16.70;;;8.32;;
5762;SDS011;2906;53.282;9.508;2023-07-28T04:46:58;19.67;;;9.40;;
5762;SDS011;2906;53.282;9.508;2023-07-28T04:48:01;16.60;;;7.20;;
5762;SDS011;2906;53.282;9.508;2023-07-28T04:49:03;15.38;;;7.80;;
5762;SDS011;2906;53.282;9.508;2023-07-28T04:50:09;23.20;;;7.95;;
5762;SDS011;2906;53.282;9.508;2023-07-28T04:51:10;18.75;;;8.10;;
5762;SDS011;2906;53.282;9.508;2023-07-28T04:52:13;11.00;;;7.55;;
5762;SDS011;2906;53.282;9.508;2023-07-28T04:53:14;21.15;;;8.18;;
5762;SDS011;2906;53.282;9.508;2023-07-28T04:54:16;22.30;;;7.70;;
5762;SDS011;2906;53.282;9.508;2023-07-28T04:55:18;22.45;;;9.88;;
5762;SDS011;2906;53.282;9.508;2023-07-28T04:56:20;17.67;;;7.80;;
5762;SDS011;2906;53.282;9.508;2023-07-28T04:57:21;18.48;;;7.30;;
5762;SDS011;2906;53.282;9.508;2023-07-28T04:58:23;15.65;;;7.93;;
5762;SDS011;2906;53.282;9.508;2023-07-28T04:59:25;15.45;;;7.85;;
5762;SDS011;2906;53.282;9.508;2023-07-28T05:00:28;16.10;;;7.47;;
5762;SDS011;2906;53.282;9.508;2023-07-28T05:01:30;14.20;;;7.85;;
5762;SDS011;2906;53.282;9.508;2023-07-28T05:02:32;13.38;;;7.63;;
5762;SDS011;2906;53.282;9.508;2023-07-28T05:03:33;14.63;;;7.15;;
5762;SDS011;2906;53.282;9.508;2023-07-28T05:04:37;13.52;;;6.75;;
5762;SDS011;2906;53.282;9.508;2023-07-28T05:05:42;12.55;;;6.60;;
5762;SDS011;2906;53.282;9.508;2023-07-28T05:06:45;6.47;;;3.50;;
5762;SDS011;2906;53.282;9.508;2023-07-28T05:07:46;5.40;;;3.80;;
5762;SDS011;2906;53.282;9.508;2023-07-28T05:08:47;6.78;;;3.42;;
5762;SDS011;2906;53.282;9.508;2023-07-28T05:09:51;5.70;;;3.20;;
5762;SDS011;2906;53.282;9.508;2023-07-28T05:10:52;5.30;;;3.10;;
5762;SDS011;2906;53.282;9.508;2023-07-28T05:11:54;3.03;;;2.55;;
5762;SDS011;2906;53.282;9.508;2023-07-28T05:12:56;3.88;;;2.83;;
5762;SDS011;2906;53.282;9.508;2023-07-28T05:13:58;3.22;;;2.60;;
5762;SDS011;2906;53.282;9.508;2023-07-28T05:14:59;3.30;;;2.30;;
5762;SDS011;2906;53.282;9.508;2023-07-28T05:16:02;2.75;;;2.33;;
5762;SDS011;2906;53.282;9.508;2023-07-28T05:17:03;2.90;;;2.42;;
5762;SDS011;2906;53.282;9.508;2023-07-28T05:18:06;4.22;;;2.20;;
5762;SDS011;2906;53.282;9.508;2023-07-28T05:19:07;8.38;;;2.22;;
5762;SDS011;2906;53.282;9.508;2023-07-28T05:20:11;3.97;;;2.40;;
5762;SDS011;2906;53.282;9.508;2023-07-28T05:21:12;2.28;;;1.75;;
5762;SDS011;2906;53.282;9.508;2023-07-28T05:22:15;2.10;;;1.60;;
5762;SDS011;2906;53.282;9.508;2023-07-28T05:23:16;4.63;;;2.38;;
5762;SDS011;2906;53.282;9.508;2023-07-28T05:24:19;2.85;;;1.90;;
5762;SDS011;2906;53.282;9.508;2023-07-28T05:25:20;5.93;;;1.85;;
5762;SDS011;2906;53.282;9.508;2023-07-28T05:26:23;1.70;;;1.60;;
5762;SDS011;2906;53.282;9.508;2023-07-28T05:27:24;9.00;;;6.85;;
5762;SDS011;2906;53.282;9.508;2023-07-28T05:28:26;6.90;;;2.60;;
5762;SDS011;2906;53.282;9.508;2023-07-28T05:29:27;5.55;;;3.35;;
5762;SDS011;2906;53.282;9.508;2023-07-28T05:30:30;7.78;;;3.60;;
5762;SDS011;2906;53.282;9.508;2023-07-28T05:31:31;9.10;;;3.97;;
5762;SDS011;2906;53.282;9.508;2023-07-28T05:32:34;2.15;;;1.95;;
5762;SDS011;2906;53.282;9.508;2023-07-28T05:33:38;2.70;;;1.50;;
5762;SDS011;2906;53.282;9.508;2023-07-28T05:34:41;1.63;;;1.35;;
5762;SDS011;2906;53.282;9.508;2023-07-28T05:35:44;1.50;;;1.27;;
5762;SDS011;2906;53.282;9.508;2023-07-28T05:36:46;11.43;;;7.05;;
5762;SDS011;2906;53.282;9.508;2023-07-28T05:37:47;4.90;;;3.85;;
5762;SDS011;2906;53.282;9.508;2023-07-28T05:38:49;3.67;;;1.75;;
5762;SDS011;2906;53.282;9.508;2023-07-28T05:39:53;10.98;;;3.80;;
5762;SDS011;2906;53.282;9.508;2023-07-28T05:40:56;2.35;;;1.63;;
5762;SDS011;2906;53.282;9.508;2023-07-28T05:42:00;3.92;;;1.55;;
5762;SDS011;2906;53.282;9.508;2023-07-28T05:43:01;6.03;;;3.80;;
5762;SDS011;2906;53.282;9.508;2023-07-28T05:44:04;2.55;;;2.30;;
5762;SDS011;2906;53.282;9.508;2023-07-28T05:45:08;1.50;;;1.40;;
5762;SDS011;2906;53.282;9.508;2023-07-28T05:46:11;1.88;;;1.10;;
5762;SDS011;2906;53.282;9.508;2023-07-28T05:47:12;5.53;;;1.30;;
5762;SDS011;2906;53.282;9.508;2023-07-28T05:48:14;1.60;;;1.50;;
5762;SDS011;2906;53.282;9.508;2023-07-28T05:49:16;3.38;;;1.25;;
5762;SDS011;2906;53.282;9.508;2023-07-28T05:50:18;5.07;;;1.30;;
5762;SDS011;2906;53.282;9.508;2023-07-28T05:51:20;1.65;;;1.50;;
5762;SDS011;2906;53.282;9.508;2023-07-28T05:52:23;1.75;;;1.27;;
5762;SDS011;2906;53.282;9.508;2023-07-28T05:53:24;1.75;;;1.30;;
5762;SDS011;2906;53.282;9.508;2023-07-28T05:54:26;4.35;;;1.13;;
5762;SDS011;2906;53.282;9.508;2023-07-28T05:55:28;2.10;;;1.17;;
5762;SDS011;2906;53.282;9.508;2023-07-28T05:56:30;3.00;;;1.27;;
5762;SDS011;2906;53.282;9.508;2023-07-28T05:57:34;2.58;;;1.48;;
5762;SDS011;2906;53.282;9.508;2023-07-28T05:58:36;1.50;;;1.02;;
5762;SDS011;2906;53.282;9.508;2023-07-28T05:59:38;4.72;;;1.20;;
5762;SDS011;2906;53.282;9.508;2023-07-28T06:00:40;1.85;;;1.23;;
5762;SDS011;2906;53.282;9.508;2023-07-28T06:01:42;1.73;;;1.20;;
5762;SDS011;2906;53.282;9.508;2023-07-28T06:02:44;1.77;;;1.17;;
5762;SDS011;2906;53.282;9.508;2023-07-28T06:03:45;1.52;;;1.10;;
5762;SDS011;2906;53.282;9.508;2023-07-28T06:04:50;2.28;;;1.13;;
5762;SDS011;2906;53.282;9.508;2023-07-28T06:05:52;1.50;;;0.88;;
5762;SDS011;2906;53.282;9.508;2023-07-28T06:06:56;1.45;;;1.13;;
5762;SDS011;2906;53.282;9.508;2023-07-28T06:07:57;2.63;;;0.93;;
5762;SDS011;2906;53.282;9.508;2023-07-28T06:08:59;1.30;;;1.00;;
5762;SDS011;2906;53.282;9.508;2023-07-28T06:10:01;1.45;;;0.63;;
5762;SDS011;2906;53.282;9.508;2023-07-28T06:11:03;3.28;;;0.50;;
5762;SDS011;2906;53.282;9.508;2023-07-28T06:12:05;1.20;;;0.90;;
5762;SDS011;2906;53.282;9.508;2023-07-28T06:13:07;1.20;;;0.73;;
5762;SDS011;2906;53.282;9.508;2023-07-28T06:14:09;1.30;;;0.82;;
5762;SDS011;2906;53.282;9.508;2023-07-28T06:15:11;1.10;;;0.67;;
5762;SDS011;2906;53.282;9.508;2023-07-28T06:16:12;2.13;;;0.90;;
5762;SDS011;2906;53.282;9.508;2023-07-28T06:17:15;1.73;;;0.90;;
5762;SDS011;2906;53.282;9.508;2023-07-28T06:18:16;1.45;;;1.30;;
5762;SDS011;2906;53.282;9.508;2023-07-28T06:19:19;1.27;;;0.82;;
5762;SDS011;2906;53.282;9.508;2023-07-28T06:20:24;5.63;;;0.93;;
5762;SDS011;2906;53.282;9.508;2023-07-28T06:21:26;1.77;;;1.10;;
5762;SDS011;2906;53.282;9.508;2023-07-28T06:22:29;2.30;;;1.53;;
5762;SDS011;2906;53.282;9.508;2023-07-28T06:23:31;1.30;;;0.90;;
5762;SDS011;2906;53.282;9.508;2023-07-28T06:24:33;5.43;;;0.90;;